createdAt,value
2018-06-23T00:00:59.343Z,98945.41
2018-06-23T00:03:27.938Z,98952.97
2018-06-23T00:05:57.548Z,98958.08
2018-06-23T00:08:26.455Z,98955.39
2018-06-23T00:10:55.101Z,98951.06
2018-06-23T00:13:23.863Z,98951.61
2018-06-23T00:15:53.395Z,98959.95
2018-06-23T00:18:22.004Z,98960.22
2018-06-23T00:20:50.658Z,98961.03
2018-06-23T00:23:19.214Z,98963.20
2018-06-23T00:26:55.847Z,98958.08
2018-06-23T00:29:24.683Z,98959.67
2018-06-23T00:31:53.339Z,98967.68
2018-06-23T00:34:22.040Z,98967.39
2018-06-23T00:36:50.687Z,98970.09
2018-06-23T00:39:19.379Z,98971.72
2018-06-23T00:41:47.943Z,98972.78
2018-06-23T00:44:16.888Z,98974.37
2018-06-23T00:46:45.429Z,98962.69
2018-06-23T00:49:14.215Z,98963.73
2018-06-23T00:51:42.769Z,98964.30
2018-06-23T00:54:11.360Z,98961.62
2018-06-23T00:56:39.963Z,98964.58
2018-06-23T00:59:19.725Z,98968.84
2018-06-23T01:01:48.442Z,98963.45
2018-06-23T01:04:17.886Z,98955.31
2018-06-23T01:06:46.428Z,98955.03
2018-06-23T01:09:15.078Z,98956.93
2018-06-23T01:11:43.594Z,98948.84
2018-06-23T01:14:12.164Z,98952.80
2018-06-23T01:16:40.708Z,98953.05
2018-06-23T01:19:09.488Z,98952.47
2018-06-23T01:21:38.317Z,98957.05
2018-06-23T01:24:07.113Z,98958.10
2018-06-23T01:26:35.798Z,98949.45
2018-06-23T01:29:04.399Z,98947.77
2018-06-23T01:31:33.136Z,98950.67
2018-06-23T01:34:01.728Z,98947.70
2018-06-23T01:36:30.268Z,98950.94
2018-06-23T01:38:58.819Z,98949.54
2018-06-23T01:41:28.071Z,98944.70
2018-06-23T01:43:56.614Z,98937.92
2018-06-23T01:46:25.233Z,98943.33
2018-06-23T01:48:53.761Z,98939.53
2018-06-23T01:51:22.258Z,98932.25
2018-06-23T01:53:50.813Z,98928.74
2018-06-23T01:56:19.380Z,98933.02
2018-06-23T01:58:47.906Z,98928.11
2018-06-23T02:01:16.479Z,98931.89
2018-06-23T02:03:45.624Z,98926.75
2018-06-23T02:06:14.404Z,98926.98
2018-06-23T02:08:43.815Z,98934.77
2018-06-23T02:11:12.309Z,98930.23
2018-06-23T02:13:40.835Z,98929.15
2018-06-23T02:16:15.530Z,98933.21
2018-06-23T02:18:49.415Z,98930.23
2018-06-23T02:21:23.344Z,98936.14
2018-06-23T02:23:57.305Z,98932.36
2018-06-23T02:26:31.243Z,98938.02
2018-06-23T02:29:05.090Z,98932.13
2018-06-23T02:31:39.033Z,98943.13
2018-06-23T02:34:13.533Z,98936.14
2018-06-23T02:36:42.241Z,98944.47
2018-06-23T02:39:11.000Z,98948.45
2018-06-23T02:41:39.605Z,98945.68
2018-06-23T02:44:08.365Z,98945.33
2018-06-23T02:46:37.181Z,98947.41
2018-06-23T02:49:05.950Z,98942.27
2018-06-23T02:51:34.834Z,98940.36
2018-06-23T02:54:03.629Z,98945.94
2018-06-23T02:56:32.305Z,98940.30
2018-06-23T02:59:00.847Z,98945.59
2018-06-23T03:01:29.502Z,98949.35
2018-06-23T03:03:58.356Z,98954.11
2018-06-23T03:06:26.972Z,98959.70
2018-06-23T03:08:55.805Z,98956.23
2018-06-23T03:11:24.455Z,98961.34
2018-06-23T03:13:53.124Z,98959.19
2018-06-23T03:16:21.776Z,98970.72
2018-06-23T03:18:50.417Z,98965.34
2018-06-23T03:21:19.121Z,98962.73
2018-06-23T03:23:47.769Z,98964.33
2018-06-23T03:26:16.915Z,98966.69
2018-06-23T03:28:45.854Z,98973.67
2018-06-23T03:31:14.437Z,98974.20
2018-06-23T03:33:43.654Z,98977.11
2018-06-23T03:36:12.317Z,98977.92
2018-06-23T03:38:41.056Z,98980.06
2018-06-23T03:41:09.829Z,98983.86
2018-06-23T03:43:38.535Z,98988.52
2018-06-23T03:46:07.726Z,98984.48
2018-06-23T03:48:37.174Z,98990.23
2018-06-23T03:51:05.855Z,98986.98
2018-06-23T03:53:35.325Z,98980.53
2018-06-23T03:56:04.195Z,98987.55
2018-06-23T03:58:32.885Z,98980.07
2018-06-23T04:01:07.378Z,98979.64
2018-06-23T04:03:36.381Z,98979.97
2018-06-23T04:06:05.399Z,98967.41
2018-06-23T04:08:34.844Z,98971.76
2018-06-23T04:11:03.869Z,98973.51
2018-06-23T04:13:33.201Z,98980.34
2018-06-23T04:16:02.327Z,98965.65
2018-06-23T04:18:31.991Z,98971.39
2018-06-23T04:21:00.656Z,98972.54
2018-06-23T04:23:29.551Z,98969.34
2018-06-23T04:25:58.432Z,98970.64
2018-06-23T04:28:27.744Z,98967.95
2018-06-23T04:30:56.634Z,98970.64
2018-06-23T04:33:25.453Z,98973.64
2018-06-23T04:35:54.204Z,98978.20
2018-06-23T04:38:22.864Z,98975.59
2018-06-23T04:40:51.576Z,98971.61
2018-06-23T04:43:20.221Z,98978.11
2018-06-23T04:45:48.974Z,98982.95
2018-06-23T04:48:17.655Z,98986.46
2018-06-23T04:50:46.512Z,98991.05
2018-06-23T04:53:15.975Z,98987.91
2018-06-23T04:55:44.886Z,98990.67
2018-06-23T04:58:13.645Z,98989.91
2018-06-23T05:00:42.444Z,98988.08
2018-06-23T05:03:11.310Z,98990.56
2018-06-23T05:05:40.824Z,98995.73
2018-06-23T05:08:09.429Z,99000.08
2018-06-23T05:10:38.309Z,98994.22
2018-06-23T05:13:07.110Z,98994.50
2018-06-23T05:15:36.200Z,98999.33
2018-06-23T05:18:04.951Z,99000.13
2018-06-23T05:20:33.769Z,98996.10
2018-06-23T05:23:02.506Z,99008.25
2018-06-23T05:25:31.380Z,99003.95
2018-06-23T05:28:00.105Z,99001.81
2018-06-23T05:30:29.094Z,99003.48
2018-06-23T05:32:58.427Z,99006.23
2018-06-23T05:35:27.352Z,99012.11
2018-06-23T05:37:55.905Z,99016.86
2018-06-23T05:40:24.644Z,99013.86
2018-06-23T05:42:53.262Z,99009.80
2018-06-23T05:45:22.133Z,99010.05
2018-06-23T05:47:50.840Z,99014.83
2018-06-23T05:50:20.021Z,99002.43
2018-06-23T05:52:48.618Z,99005.00
2018-06-23T05:55:17.494Z,99006.34
2018-06-23T05:57:46.217Z,99007.15
2018-06-23T06:00:22.770Z,99004.80
2018-06-23T06:02:52.848Z,99005.47
2018-06-23T06:05:22.256Z,99001.27
2018-06-23T06:07:51.226Z,99000.16
2018-06-23T06:10:19.817Z,99004.83
2018-06-23T06:12:48.408Z,98992.85
2018-06-23T06:15:17.295Z,99004.89
2018-06-23T06:17:45.957Z,99008.03
2018-06-23T06:20:15.716Z,99004.33
2018-06-23T06:22:45.632Z,99008.55
2018-06-23T06:25:15.157Z,99004.30
2018-06-23T06:27:44.112Z,99008.59
2018-06-23T06:30:13.061Z,99008.04
2018-06-23T06:32:41.660Z,99001.89
2018-06-23T06:35:10.524Z,99003.16
2018-06-23T06:37:39.500Z,99001.70
2018-06-23T06:40:08.717Z,99001.63
2018-06-23T06:42:37.611Z,98994.17
2018-06-23T06:45:07.147Z,98991.18
2018-06-23T06:47:36.120Z,98993.78
2018-06-23T06:50:06.182Z,98993.86
2018-06-23T06:52:34.982Z,98996.03
2018-06-23T06:55:04.023Z,98997.33
2018-06-23T06:57:32.830Z,98990.47
2018-06-23T07:00:01.636Z,98985.69
2018-06-23T07:02:30.225Z,98992.03
2018-06-23T07:04:58.962Z,98989.20
2018-06-23T07:07:27.717Z,98993.27
2018-06-23T07:09:56.485Z,98990.42
2018-06-23T07:12:25.072Z,98991.80
2018-06-23T07:14:53.901Z,98996.08
2018-06-23T07:17:22.765Z,98992.17
2018-06-23T07:19:51.440Z,98983.29
2018-06-23T07:22:20.938Z,98981.65
2018-06-23T07:24:50.350Z,98980.67
2018-06-23T07:27:20.765Z,98980.00
2018-06-23T07:29:49.920Z,98984.73
2018-06-23T07:32:19.106Z,98988.56
2018-06-23T07:34:48.523Z,98985.14
2018-06-23T07:37:17.487Z,98979.16
2018-06-23T07:39:46.466Z,98978.13
2018-06-23T07:42:15.173Z,98967.89
2018-06-23T07:44:43.891Z,98966.31
2018-06-23T07:47:13.576Z,98964.30
2018-06-23T07:49:42.561Z,98972.98
2018-06-23T07:52:11.984Z,98967.71
2018-06-23T07:54:40.726Z,98969.50
2018-06-23T07:57:09.373Z,98961.73
2018-06-23T07:59:37.926Z,98965.03
2018-06-23T08:02:07.036Z,98964.37
2018-06-23T08:04:36.183Z,98964.34
2018-06-23T08:07:05.279Z,98962.08
2018-06-23T08:09:34.933Z,98962.53
2018-06-23T08:12:03.616Z,98960.19
2018-06-23T08:14:32.364Z,98957.86
2018-06-23T08:17:01.116Z,98956.79
2018-06-23T08:19:29.840Z,98957.05
2018-06-23T08:21:58.534Z,98959.22
2018-06-23T08:24:27.584Z,98953.70
2018-06-23T08:26:57.497Z,98948.98
2018-06-23T08:29:26.343Z,98945.17
2018-06-23T08:31:55.369Z,98944.70
2018-06-23T08:34:23.951Z,98942.79
2018-06-23T08:36:52.997Z,98945.83
2018-06-23T08:39:23.636Z,98938.47
2018-06-23T08:41:52.487Z,98939.73
2018-06-23T08:44:24.721Z,98944.81
2018-06-23T08:46:54.152Z,98940.19
2018-06-23T08:49:23.037Z,98936.16
2018-06-23T08:51:52.007Z,98934.09
2018-06-23T08:54:20.658Z,98938.16
2018-06-23T08:56:49.550Z,98935.20
2018-06-23T08:59:18.393Z,98937.58
2018-06-23T09:01:47.173Z,98942.67
2018-06-23T09:04:16.128Z,98932.67
2018-06-23T09:06:44.763Z,98942.88
2018-06-23T09:09:13.441Z,98943.45
2018-06-23T09:11:42.107Z,98951.58
2018-06-23T09:14:11.090Z,98948.62
2018-06-23T09:16:39.942Z,98948.31
2018-06-23T09:19:08.703Z,98940.70
2018-06-23T09:21:38.346Z,98937.69
2018-06-23T09:24:07.386Z,98934.66
2018-06-23T09:26:36.546Z,98935.02
2018-06-23T09:29:05.749Z,98937.72
2018-06-23T09:31:35.194Z,98931.30
2018-06-23T09:34:05.149Z,98934.05
2018-06-23T09:36:34.866Z,98934.42
2018-06-23T09:39:04.077Z,98929.81
2018-06-23T09:41:33.032Z,98930.84
2018-06-23T09:44:02.008Z,98934.12
2018-06-23T09:46:30.662Z,98940.14
2018-06-23T09:48:59.541Z,98933.81
2018-06-23T09:51:28.362Z,98938.90
2018-06-23T09:53:57.092Z,98933.83
2018-06-23T09:56:25.688Z,98936.53
2018-06-23T09:58:54.672Z,98938.73
2018-06-23T10:01:24.307Z,98928.45
2018-06-23T10:03:53.904Z,98929.60
2018-06-23T10:06:24.365Z,98935.20
2018-06-23T10:08:53.423Z,98933.89
2018-06-23T10:11:22.149Z,98940.58
2018-06-23T10:13:51.057Z,98941.69
2018-06-23T10:16:20.828Z,98943.03
2018-06-23T10:18:50.229Z,98947.16
2018-06-23T10:21:19.252Z,98949.98
2018-06-23T10:23:48.538Z,98942.34
2018-06-23T10:26:17.248Z,98944.75
2018-06-23T10:28:46.064Z,98935.00
2018-06-23T10:31:15.392Z,98930.35
2018-06-23T10:33:45.419Z,98931.18
2018-06-23T10:36:14.127Z,98934.61
2018-06-23T10:38:43.014Z,98929.94
2018-06-23T10:41:11.812Z,98933.45
2018-06-23T10:43:40.803Z,98930.31
2018-06-23T10:46:09.896Z,98937.26
2018-06-23T10:48:39.012Z,98937.45
2018-06-23T10:51:08.026Z,98943.53
2018-06-23T10:53:36.869Z,98936.60
2018-06-23T10:56:05.563Z,98939.55
2018-06-23T10:59:58.298Z,98935.74
2018-06-23T11:02:26.960Z,98938.16
2018-06-23T11:04:56.708Z,98928.45
2018-06-23T11:07:25.454Z,98923.56
2018-06-23T11:09:54.256Z,98927.80
2018-06-23T11:12:23.206Z,98921.22
2018-06-23T11:14:52.152Z,98925.50
2018-06-23T11:17:21.240Z,98928.20
2018-06-23T11:19:50.042Z,98923.53
2018-06-23T11:22:18.867Z,98922.57
2018-06-23T11:24:47.558Z,98920.42
2018-06-23T11:27:17.108Z,98922.20
2018-06-23T11:29:46.642Z,98911.42
2018-06-23T11:32:15.765Z,98920.63
2018-06-23T11:34:44.387Z,98916.92
2018-06-23T11:37:13.143Z,98906.38
2018-06-23T11:39:41.799Z,98901.47
2018-06-23T11:42:10.607Z,98896.21
2018-06-23T11:44:39.467Z,98898.30
2018-06-23T11:47:08.345Z,98886.75
2018-06-23T11:49:37.191Z,98897.81
2018-06-23T11:52:06.252Z,98893.61
2018-06-23T11:54:35.039Z,98887.27
2018-06-23T11:57:03.723Z,98891.19
2018-06-23T11:59:32.603Z,98879.07
2018-06-23T12:02:01.480Z,98887.88
2018-06-23T12:04:30.302Z,98882.92
2018-06-23T12:06:58.953Z,98888.54
2018-06-23T12:09:28.093Z,98884.59
2018-06-23T12:11:57.274Z,98887.13
2018-06-23T12:14:26.413Z,98873.91
2018-06-23T12:16:56.073Z,98864.81
2018-06-23T12:19:24.717Z,98869.62
2018-06-23T12:21:53.491Z,98865.08
2018-06-23T12:24:22.528Z,98861.70
2018-06-23T12:26:51.063Z,98858.69
2018-06-23T12:29:19.797Z,98852.53
2018-06-23T12:31:48.510Z,98853.73
2018-06-23T12:34:17.304Z,98842.17
2018-06-23T12:36:47.469Z,98842.06
2018-06-23T12:39:16.257Z,98846.30
2018-06-23T12:41:45.069Z,98839.45
2018-06-23T12:44:13.706Z,98832.75
2018-06-23T12:46:42.497Z,98836.92
2018-06-23T12:49:12.388Z,98832.73
2018-06-23T12:51:42.012Z,98833.73
2018-06-23T12:54:10.795Z,98821.96
2018-06-23T12:56:39.499Z,98833.56
2018-06-23T12:59:08.352Z,98826.17
2018-06-23T13:01:37.055Z,98821.47
2018-06-23T13:04:06.113Z,98822.45
2018-06-23T13:06:34.979Z,98808.80
2018-06-23T13:09:04.882Z,98806.88
2018-06-23T13:11:33.519Z,98807.41
2018-06-23T13:14:02.345Z,98795.69
2018-06-23T13:16:30.984Z,98799.91
2018-06-23T13:18:59.659Z,98789.59
2018-06-23T13:21:28.533Z,98786.64
2018-06-23T13:23:57.293Z,98781.63
2018-06-23T13:26:25.994Z,98789.64
2018-06-23T13:28:54.893Z,98783.19
2018-06-23T13:31:23.608Z,98788.11
2018-06-23T13:33:52.453Z,98779.28
2018-06-23T13:36:21.185Z,98783.03
2018-06-23T13:38:49.735Z,98789.25
2018-06-23T13:41:18.442Z,98774.22
2018-06-23T13:43:47.103Z,98772.05
2018-06-23T13:46:15.733Z,98767.67
2018-06-23T13:48:44.559Z,98778.36
2018-06-23T13:51:13.668Z,98778.48
2018-06-23T13:53:42.253Z,98771.05
2018-06-23T13:56:11.004Z,98772.23
2018-06-23T13:58:39.823Z,98775.22
2018-06-23T14:01:09.024Z,98770.85
2018-06-23T14:03:37.647Z,98770.59
2018-06-23T14:06:06.467Z,98760.95
2018-06-23T14:08:35.505Z,98757.34
2018-06-23T14:11:04.122Z,98757.23
2018-06-23T14:13:33.029Z,98749.89
2018-06-23T14:16:01.875Z,98761.34
2018-06-23T14:18:30.617Z,98766.00
2018-06-23T14:20:59.469Z,98767.95
2018-06-23T14:23:29.320Z,98759.59
2018-06-23T14:25:57.950Z,98758.20
2018-06-23T14:28:26.549Z,98763.50
2018-06-23T14:30:55.539Z,98765.33
2018-06-23T14:33:25.229Z,98752.73
2018-06-23T14:35:54.965Z,98747.58
2018-06-23T14:38:23.695Z,98748.81
2018-06-23T14:40:52.841Z,98751.72
2018-06-23T14:43:21.563Z,98750.14
2018-06-23T14:45:50.928Z,98747.66
2018-06-23T14:48:19.774Z,98753.92
2018-06-23T14:50:48.716Z,98759.28
2018-06-23T14:53:17.553Z,98755.95
2018-06-23T14:55:47.310Z,98749.14
2018-06-23T14:58:16.318Z,98747.66
2018-06-23T15:00:46.055Z,98750.15
2018-06-23T15:03:15.003Z,98747.82
2018-06-23T15:05:43.690Z,98745.26
2018-06-23T15:08:23.277Z,98745.26
2018-06-23T15:11:03.020Z,98738.43
2018-06-23T15:13:31.611Z,98733.23
2018-06-23T15:16:00.939Z,98741.05
2018-06-23T15:18:29.805Z,98738.41
2018-06-23T15:20:58.536Z,98738.55
2018-06-23T15:23:27.830Z,98738.73
2018-06-23T15:25:56.524Z,98733.38
2018-06-23T15:28:25.278Z,98735.99
2018-06-23T15:30:53.996Z,98740.32
2018-06-23T15:33:22.860Z,98737.83
2018-06-23T15:35:51.950Z,98728.58
2018-06-23T15:38:20.631Z,98731.70
2018-06-23T15:40:49.610Z,98726.20
2018-06-23T15:43:18.343Z,98724.38
2018-06-23T15:45:47.084Z,98723.03
2018-06-23T15:48:15.930Z,98718.02
2018-06-23T15:50:44.725Z,98716.75
2018-06-23T15:53:13.424Z,98716.11
2018-06-23T15:55:43.001Z,98712.11
2018-06-23T15:58:11.754Z,98709.59
2018-06-23T16:00:40.810Z,98715.09
2018-06-23T16:03:09.673Z,98712.48
2018-06-23T16:05:38.991Z,98712.64
2018-06-23T16:08:07.627Z,98710.75
2018-06-23T16:10:36.788Z,98704.44
2018-06-23T16:13:05.482Z,98706.44
2018-06-23T16:15:34.257Z,98711.05
2018-06-23T16:18:02.920Z,98711.28
2018-06-23T16:20:31.655Z,98706.18
2018-06-23T16:23:00.317Z,98695.95
2018-06-23T16:25:29.000Z,98704.20
2018-06-23T16:27:57.801Z,98698.50
2018-06-23T16:30:26.653Z,98693.00
2018-06-23T16:32:55.351Z,98685.80
2018-06-23T16:35:24.374Z,98691.19
2018-06-23T16:37:52.685Z,98684.14
2018-06-23T16:40:21.385Z,98685.06
2018-06-23T16:42:50.164Z,98685.18
2018-06-23T16:45:19.060Z,98681.03
2018-06-23T16:47:47.940Z,98678.48
2018-06-23T16:50:16.656Z,98677.56
2018-06-23T16:52:45.288Z,98678.73
2018-06-23T16:55:14.107Z,98673.44
2018-06-23T16:57:42.784Z,98672.31
2018-06-23T17:00:12.194Z,98672.90
2018-06-23T17:02:41.044Z,98668.45
2018-06-23T17:05:09.938Z,98675.29
2018-06-23T17:07:38.837Z,98674.93
2018-06-23T17:10:07.500Z,98672.45
2018-06-23T17:12:36.039Z,98677.26
2018-06-23T17:15:06.081Z,98672.33
2018-06-23T17:17:34.831Z,98668.25
2018-06-23T17:20:03.605Z,98675.25
2018-06-23T17:22:33.376Z,98675.04
2018-06-23T17:25:02.269Z,98671.27
2018-06-23T17:27:30.892Z,98675.73
2018-06-23T17:29:59.504Z,98668.97
2018-06-23T17:32:28.314Z,98675.84
2018-06-23T17:34:57.006Z,98680.31
2018-06-23T17:37:25.845Z,98675.50
2018-06-23T17:39:54.616Z,98674.95
2018-06-23T17:42:23.359Z,98675.62
2018-06-23T17:44:52.756Z,98675.16
2018-06-23T17:47:21.647Z,98673.79
2018-06-23T17:49:50.245Z,98675.59
2018-06-23T17:52:18.917Z,98680.08
2018-06-23T17:54:48.226Z,98673.44
2018-06-23T17:57:17.149Z,98675.91
2018-06-23T17:59:45.675Z,98676.83
2018-06-23T18:02:14.417Z,98677.84
2018-06-23T18:04:43.054Z,98683.22
2018-06-23T18:07:11.719Z,98685.61
2018-06-23T18:09:40.496Z,98687.20
2018-06-23T18:12:09.205Z,98685.36
2018-06-23T18:14:37.900Z,98684.80
2018-06-23T18:17:06.521Z,98684.70
2018-06-23T18:19:36.056Z,98685.16
2018-06-23T18:22:04.724Z,98688.81
2018-06-23T18:24:33.306Z,98688.60
2018-06-23T18:27:01.900Z,98688.56
2018-06-23T18:29:30.570Z,98689.37
2018-06-23T18:31:59.200Z,98686.62
2018-06-23T18:34:28.796Z,98687.64
2018-06-23T18:36:57.679Z,98692.21
2018-06-23T18:39:26.286Z,98693.98
2018-06-23T18:41:54.903Z,98695.13
2018-06-23T18:44:23.531Z,98694.19
2018-06-23T18:46:52.392Z,98692.58
2018-06-23T18:49:21.008Z,98693.48
2018-06-23T18:51:49.705Z,98694.59
2018-06-23T18:54:18.501Z,98700.97
2018-06-23T18:56:47.317Z,98708.73
2018-06-23T18:59:15.987Z,98706.41
2018-06-23T19:01:45.117Z,98707.47
2018-06-23T19:04:13.767Z,98703.63
2018-06-23T19:06:42.535Z,98707.75
2018-06-23T19:09:11.992Z,98711.66
2018-06-23T19:11:40.641Z,98712.98
2018-06-23T19:14:10.390Z,98716.80
2018-06-23T19:16:39.411Z,98718.13
2018-06-23T19:19:08.121Z,98713.50
2018-06-23T19:21:36.789Z,98714.63
2018-06-23T19:24:05.755Z,98711.38
2018-06-23T19:26:34.980Z,98712.14
2018-06-23T19:29:03.765Z,98715.23
2018-06-23T19:31:32.481Z,98717.52
2018-06-23T19:34:01.412Z,98715.70
2018-06-23T19:36:30.097Z,98718.92
2018-06-23T19:38:58.721Z,98719.98
2018-06-23T19:41:28.436Z,98732.28
2018-06-23T19:43:57.188Z,98730.34
2018-06-23T19:46:26.007Z,98737.75
2018-06-23T19:48:56.131Z,98731.62
2018-06-23T19:51:24.777Z,98739.02
2018-06-23T19:53:53.337Z,98738.94
2018-06-23T19:56:22.905Z,98738.94
2018-06-23T19:58:51.483Z,98743.30
2018-06-23T20:01:20.210Z,98742.38
2018-06-23T20:03:49.027Z,98743.75
2018-06-23T20:06:17.610Z,98745.41
2018-06-23T20:08:46.371Z,98750.45
2018-06-23T20:11:15.037Z,98742.52
2018-06-23T20:13:43.708Z,98749.27
2018-06-23T20:16:12.491Z,98747.85
2018-06-23T20:18:41.282Z,98751.86
2018-06-23T20:21:09.978Z,98748.30
2018-06-23T20:23:38.581Z,98749.42
2018-06-23T20:26:07.298Z,98747.16
2018-06-23T20:28:37.441Z,98744.89
2018-06-23T20:31:07.231Z,98749.86
2018-06-23T20:33:36.090Z,98743.17
2018-06-23T20:36:04.866Z,98747.98
2018-06-23T20:38:33.553Z,98750.09
2018-06-23T20:41:02.271Z,98752.91
2018-06-23T20:43:31.033Z,98754.44
2018-06-23T20:46:00.540Z,98757.06
2018-06-23T20:48:29.222Z,98753.42
2018-06-23T20:50:57.911Z,98754.35
2018-06-23T20:53:26.730Z,98752.13
2018-06-23T20:55:55.409Z,98747.42
2018-06-23T20:58:24.752Z,98747.56
2018-06-23T21:00:53.786Z,98752.16
2018-06-23T21:03:22.971Z,98755.37
2018-06-23T21:05:52.291Z,98755.48
2018-06-23T21:08:21.539Z,98758.20
2018-06-23T21:10:50.682Z,98761.36
2018-06-23T21:13:19.335Z,98754.74
2018-06-23T21:15:48.147Z,98763.77
2018-06-23T21:18:17.347Z,98763.56
2018-06-23T21:20:46.212Z,98758.86
2018-06-23T21:23:14.958Z,98757.77
2018-06-23T21:25:43.650Z,98758.94
2018-06-23T21:28:12.227Z,98753.42
2018-06-23T21:30:41.529Z,98757.37
2018-06-23T21:33:10.810Z,98757.78
2018-06-23T21:35:39.469Z,98761.78
2018-06-23T21:38:08.110Z,98760.28
2018-06-23T21:40:36.832Z,98760.28
2018-06-23T21:43:05.741Z,98761.30
2018-06-23T21:45:35.257Z,98757.22
2018-06-23T21:48:04.139Z,98755.95
2018-06-23T21:50:32.829Z,98755.53
2018-06-23T21:53:01.505Z,98756.07
2018-06-23T21:55:30.163Z,98747.73
2018-06-23T21:57:59.028Z,98758.69
2018-06-23T22:00:33.392Z,98760.14
2018-06-23T22:03:04.303Z,98753.70
2018-06-23T22:05:33.113Z,98755.72
2018-06-23T22:08:02.714Z,98757.94
2018-06-23T22:10:31.521Z,98755.66
2018-06-23T22:13:00.220Z,98756.09
2018-06-23T22:15:28.918Z,98754.08
2018-06-23T22:17:57.759Z,98757.88
2018-06-23T22:20:26.442Z,98753.72
2018-06-23T22:22:55.331Z,98751.59
2018-06-23T22:25:24.457Z,98752.22
2018-06-23T22:27:53.022Z,98751.75
2018-06-23T22:30:22.647Z,98751.33
2018-06-23T22:32:51.420Z,98754.94
2018-06-23T22:35:20.031Z,98753.95
2018-06-23T22:37:48.873Z,98756.58
2018-06-23T22:40:17.621Z,98756.08
2018-06-23T22:42:46.201Z,98758.19
2018-06-23T22:45:15.261Z,98750.66
2018-06-23T22:47:44.134Z,98752.86
2018-06-23T22:50:12.712Z,98754.35
2018-06-23T22:52:41.912Z,98755.44
2018-06-23T22:55:11.117Z,98758.15
2018-06-23T22:57:40.033Z,98759.17
2018-06-23T23:00:11.742Z,98757.00
2018-06-23T23:02:40.768Z,98755.84
2018-06-23T23:05:09.856Z,98756.15
2018-06-23T23:07:39.137Z,98748.76
2018-06-23T23:10:09.057Z,98748.76
2018-06-23T23:12:38.766Z,98748.18
2018-06-23T23:15:07.927Z,98750.76
2018-06-23T23:17:36.558Z,98745.29
2018-06-23T23:20:05.955Z,98744.58
2018-06-23T23:22:35.566Z,98741.63
2018-06-23T23:25:04.483Z,98746.05
2018-06-23T23:27:33.157Z,98747.94
2018-06-23T23:30:01.846Z,98748.18
2018-06-23T23:32:30.516Z,98742.68
2018-06-23T23:34:59.077Z,98744.48
2018-06-23T23:37:27.896Z,98739.32
2018-06-23T23:39:57.064Z,98739.28
2018-06-23T23:42:25.638Z,98743.28
2018-06-23T23:44:54.294Z,98741.07
2018-06-23T23:47:23.338Z,98739.06
2018-06-23T23:49:51.936Z,98733.33
2018-06-23T23:52:20.546Z,98730.30
2018-06-23T23:54:49.486Z,98733.52
2018-06-23T23:57:18.065Z,98731.31
2018-06-23T23:59:47.010Z,98729.14
